CDT,Max TemperatureF,Mean TemperatureF,Min TemperatureF,Max Dew PointF,MeanDew PointF,Min DewpointF,Max Humidity, Mean Humidity, Min Humidity, Max Sea Level PressureIn, Mean Sea Level PressureIn, Min Sea Level PressureIn, Max VisibilityMiles, Mean VisibilityMiles, Min VisibilityMiles, Max Wind SpeedMPH, Mean Wind SpeedMPH, Max Gust SpeedMPH,PrecipitationIn, CloudCover, Events, WindDirDegrees
2013-9-1,84,78,73,66,64,61,73,61,48,29.92,29.86,29.81,10,10,3,13,3,17,0.00,0,,232
2013-9-2,89,79,69,63,60,55,78,56,33,29.99,29.93,29.89,10,9,4,8,2,,0.00,0,,358
2013-9-3,87,74,60,57,54,52,73,54,29,30.08,30.03,29.99,10,10,10,7,1,,0.00,0,,58
2013-9-4,86,72,57,55,53,48,77,54,33,30.18,30.12,30.07,10,10,2,6,1,,0.00,0,,107
2013-9-5,87,72,57,57,54,48,77,56,29,30.22,30.16,30.12,10,10,1,6,1,,0.00,0,,90
2013-9-6,87,72,57,61,56,50,77,57,33,30.18,30.12,30.05,10,9,0,6,1,,0.00,0,,116
2013-9-7,93,78,62,63,59,54,77,57,32,30.08,30.03,29.96,10,9,2,7,1,,0.00,0,,171
2013-9-8,96,80,64,66,62,57,78,57,34,29.99,29.96,29.91,10,9,3,9,2,,0.00,0,,27
2013-9-9,96,82,69,64,63,59,78,58,30,30.03,29.98,29.93,10,8,2,9,1,,0.00,0,,172
2013-9-10,95,80,66,63,60,55,73,55,26,30.15,30.09,30.02,10,9,2,8,1,,0.00,0,,218
2013-9-11,95,82,68,64,61,57,73,57,34,30.16,30.12,30.08,10,10,5,7,1,,0.00,0,Thunderstorm,118
2013-9-12,91,78,66,64,61,57,78,59,33,30.10,30.05,29.99,10,8,3,14,2,24,0.00,1,Thunderstorm,354
2013-9-13,78,69,60,61,49,46,65,47,34,30.12,30.07,30.01,10,10,10,9,4,,0.00,0,,20
2013-9-14,78,64,51,46,45,43,72,51,30,30.14,30.08,30.03,10,10,10,8,2,,0.00,0,,100
2013-9-15,86,67,48,55,48,39,71,53,30,30.10,30.06,30.04,10,10,10,7,1,,0.00,0,,142
2013-9-16,77,70,62,57,55,52,72,60,50,30.22,30.15,30.07,10,10,8,8,2,,0.00,2,,39
2013-9-17,86,75,64,59,57,54,73,55,37,30.20,30.13,30.04,10,10,4,7,4,,0.00,2,,100
2013-9-18,86,76,66,64,60,55,73,60,48,30.07,30.03,29.98,10,10,6,6,1,,0.00,0,,126
2013-9-19,91,80,68,64,62,57,73,62,40,30.04,29.98,29.93,10,9,4,12,2,25,0.00,1,Thunderstorm,171
2013-9-20,73,68,62,63,58,50,78,70,60,29.98,29.94,29.90,10,9,2,21,4,30,0.00,4,Thunderstorm,317
2013-9-21,75,64,51,48,44,39,72,52,27,30.01,29.95,29.92,10,10,9,10,5,16,0.00,0,,345
2013-9-22,77,62,46,48,44,37,76,57,34,30.02,29.95,29.90,10,10,10,7,1,,0.00,0,,121
2013-9-23,78,63,48,52,47,39,77,57,36,29.98,29.92,29.87,10,10,0,12,2,17,0.00,0,,110
2013-9-24,84,70,55,55,51,46,77,57,33,29.93,29.86,29.80,10,10,7,12,2,18,0.00,0,,277
2013-9-25,80,68,57,54,52,48,72,58,39,29.88,29.85,29.82,10,10,10,7,2,,0.00,0,,346
2013-9-26,84,68,53,59,53,46,77,60,39,30.00,29.95,29.88,10,8,0,9,1,,0.00,2,,120
2013-9-27,84,72,60,61,56,52,77,60,42,30.07,30.01,29.97,10,9,1,10,2,,0.00,1,,127
2013-9-28,84,74,64,61,58,54,78,61,45,30.03,30.00,29.95,10,10,3,18,4,29,0.00,3,,158
2013-9-29,71,66,60,61,56,52,78,70,57,30.06,30.01,29.96,10,9,2,10,3,,0.00,8,,356
2013-9-30,78,71,64,61,57,55,77,66,50,29.98,29.93,29.89,10,7,0,9,2,,0.00,5,,111